sensor_id;sensor_type;location;lat;lon;timestamp;pressure;altitude;pressure_sealevel;temperature;humidity
70445;BME280;57902;49.638;11.070;2023-02-20T00:00:56;99187.75;;;6.81;100.00
70445;BME280;57902;49.638;11.070;2023-02-20T00:03:23;99191.19;;;6.85;100.00
70445;BME280;57902;49.638;11.070;2023-02-20T00:05:49;99195.47;;;6.87;100.00
70445;BME280;57902;49.638;11.070;2023-02-20T00:08:16;99188.63;;;6.85;100.00
70445;BME280;57902;49.638;11.070;2023-02-20T00:10:42;99194.59;;;6.83;100.00
70445;BME280;57902;49.638;11.070;2023-02-20T00:13:09;99197.16;;;6.91;100.00
70445;BME280;57902;49.638;11.070;2023-02-20T00:15:35;99198.00;;;6.86;100.00
70445;BME280;57902;49.638;11.070;2023-02-20T00:18:02;99200.56;;;6.86;100.00
70445;BME280;57902;49.638;11.070;2023-02-20T00:20:28;99201.44;;;6.88;100.00
70445;BME280;57902;49.638;11.070;2023-02-20T00:22:55;99196.31;;;6.85;100.00
70445;BME280;57902;49.638;11.070;2023-02-20T00:25:22;99204.00;;;6.85;100.00
70445;BME280;57902;49.638;11.070;2023-02-20T00:27:48;99204.00;;;6.88;100.00
70445;BME280;57902;49.638;11.070;2023-02-20T00:30:22;99206.56;;;6.85;100.00
70445;BME280;57902;49.638;11.070;2023-02-20T00:32:52;99203.13;;;6.84;100.00
70445;BME280;57902;49.638;11.070;2023-02-20T00:35:20;99202.28;;;6.85;100.00
70445;BME280;57902;49.638;11.070;2023-02-20T00:37:47;99201.44;;;6.85;100.00
70445;BME280;57902;49.638;11.070;2023-02-20T00:40:15;99204.00;;;6.83;100.00
70445;BME280;57902;49.638;11.070;2023-02-20T00:42:42;99202.28;;;6.82;100.00
70445;BME280;57902;49.638;11.070;2023-02-20T00:45:09;99198.00;;;6.82;100.00
70445;BME280;57902;49.638;11.070;2023-02-20T00:47:36;99191.19;;;6.78;100.00
70445;BME280;57902;49.638;11.070;2023-02-20T00:50:04;99193.75;;;6.77;100.00
70445;BME280;57902;49.638;11.070;2023-02-20T00:52:30;99192.88;;;6.76;100.00
70445;BME280;57902;49.638;11.070;2023-02-20T00:54:57;99188.66;;;6.77;100.00
70445;BME280;57902;49.638;11.070;2023-02-20T00:57:23;99192.03;;;6.82;100.00
70445;BME280;57902;49.638;11.070;2023-02-20T00:59:50;99195.44;;;6.81;100.00
70445;BME280;57902;49.638;11.070;2023-02-20T01:02:17;99191.19;;;6.78;100.00
70445;BME280;57902;49.638;11.070;2023-02-20T01:04:43;99186.94;;;6.76;100.00
70445;BME280;57902;49.638;11.070;2023-02-20T01:07:10;99185.19;;;6.81;100.00
70445;BME280;57902;49.638;11.070;2023-02-20T01:09:36;99197.16;;;6.83;100.00
70445;BME280;57902;49.638;11.070;2023-02-20T01:12:03;99191.19;;;6.81;100.00
70445;BME280;57902;49.638;11.070;2023-02-20T01:14:30;99200.56;;;6.84;100.00
70445;BME280;57902;49.638;11.070;2023-02-20T01:16:57;99197.16;;;6.77;100.00
70445;BME280;57902;49.638;11.070;2023-02-20T01:19:24;99206.56;;;6.77;100.00
70445;BME280;57902;49.638;11.070;2023-02-20T01:21:51;99213.41;;;6.79;100.00
70445;BME280;57902;49.638;11.070;2023-02-20T01:24:18;99197.16;;;6.76;100.00
70445;BME280;57902;49.638;11.070;2023-02-20T01:26:45;99198.00;;;6.76;100.00
70445;BME280;57902;49.638;11.070;2023-02-20T01:29:13;99187.75;;;6.86;100.00
70445;BME280;57902;49.638;11.070;2023-02-20T01:31:46;99198.88;;;6.81;100.00
70445;BME280;57902;49.638;11.070;2023-02-20T01:34:12;99192.88;;;6.82;100.00
70445;BME280;57902;49.638;11.070;2023-02-20T01:36:51;99195.47;;;6.76;100.00
70445;BME280;57902;49.638;11.070;2023-02-20T01:39:23;99184.34;;;6.80;100.00
70445;BME280;57902;49.638;11.070;2023-02-20T01:41:53;99192.88;;;6.76;100.00
70445;BME280;57902;49.638;11.070;2023-02-20T01:44:29;99189.50;;;6.73;100.00
70445;BME280;57902;49.638;11.070;2023-02-20T01:46:56;99178.38;;;6.75;100.00
70445;BME280;57902;49.638;11.070;2023-02-20T01:49:57;99180.91;;;6.75;100.00
70445;BME280;57902;49.638;11.070;2023-02-20T01:52:30;99184.38;;;6.71;100.00
70445;BME280;57902;49.638;11.070;2023-02-20T01:55:08;99177.53;;;6.70;100.00
70445;BME280;57902;49.638;11.070;2023-02-20T01:57:39;99177.53;;;6.67;100.00
70445;BME280;57902;49.638;11.070;2023-02-20T02:00:09;99170.69;;;6.68;100.00
70445;BME280;57902;49.638;11.070;2023-02-20T02:02:42;99176.66;;;6.60;100.00
70445;BME280;57902;49.638;11.070;2023-02-20T02:05:11;99174.09;;;6.53;100.00
70445;BME280;57902;49.638;11.070;2023-02-20T02:07:38;99170.69;;;6.49;100.00
70445;BME280;57902;49.638;11.070;2023-02-20T02:10:25;99175.81;;;6.47;100.00
70445;BME280;57902;49.638;11.070;2023-02-20T02:12:54;99171.53;;;6.42;100.00
70445;BME280;57902;49.638;11.070;2023-02-20T02:15:22;99171.53;;;6.39;100.00
70445;BME280;57902;49.638;11.070;2023-02-20T02:18:22;99184.34;;;6.43;100.00
70445;BME280;57902;49.638;11.070;2023-02-20T02:29:38;99162.13;;;6.48;100.00
70445;BME280;57902;49.638;11.070;2023-02-20T02:35:17;99160.41;;;6.46;100.00
70445;BME280;57902;49.638;11.070;2023-02-20T02:40:42;99154.44;;;6.41;100.00
70445;BME280;57902;49.638;11.070;2023-02-20T02:43:28;99142.47;;;6.40;100.00
70445;BME280;57902;49.638;11.070;2023-02-20T02:46:08;99134.78;;;6.35;100.00
70445;BME280;57902;49.638;11.070;2023-02-20T02:48:48;99138.22;;;6.37;100.00
70445;BME280;57902;49.638;11.070;2023-02-20T02:51:20;99133.94;;;6.35;100.00
70445;BME280;57902;49.638;11.070;2023-02-20T02:54:11;99134.78;;;6.30;100.00
70445;BME280;57902;49.638;11.070;2023-02-20T02:56:41;99129.66;;;6.29;100.00
70445;BME280;57902;49.638;11.070;2023-02-20T02:59:12;99127.13;;;6.29;100.00
70445;BME280;57902;49.638;11.070;2023-02-20T03:01:47;99133.94;;;6.27;100.00
70445;BME280;57902;49.638;11.070;2023-02-20T03:04:15;99142.47;;;6.23;100.00
70445;BME280;57902;49.638;11.070;2023-02-20T03:06:52;99146.72;;;6.25;100.00
70445;BME280;57902;49.638;11.070;2023-02-20T03:09:28;99148.44;;;6.19;100.00
70445;BME280;57902;49.638;11.070;2023-02-20T03:11:57;99154.41;;;6.18;100.00
70445;BME280;57902;49.638;11.070;2023-02-20T03:14:27;99145.88;;;6.19;100.00
70445;BME280;57902;49.638;11.070;2023-02-20T03:20:02;99145.03;;;6.17;100.00
70445;BME280;57902;49.638;11.070;2023-02-20T03:22:38;99145.03;;;6.20;100.00
70445;BME280;57902;49.638;11.070;2023-02-20T03:25:14;99153.56;;;6.22;100.00
70445;BME280;57902;49.638;11.070;2023-02-20T03:27:52;99157.81;;;6.18;100.00
70445;BME280;57902;49.638;11.070;2023-02-20T03:30:25;99161.22;;;6.20;100.00
70445;BME280;57902;49.638;11.070;2023-02-20T03:33:13;99164.63;;;6.19;100.00
70445;BME280;57902;49.638;11.070;2023-02-20T03:36:04;99164.63;;;6.22;100.00
70445;BME280;57902;49.638;11.070;2023-02-20T03:38:57;99168.91;;;6.23;100.00
70445;BME280;57902;49.638;11.070;2023-02-20T03:41:46;99166.34;;;6.22;100.00
70445;BME280;57902;49.638;11.070;2023-02-20T03:44:33;99170.63;;;6.23;100.00
70445;BME280;57902;49.638;11.070;2023-02-20T03:47:01;99156.13;;;6.25;100.00
70445;BME280;57902;49.638;11.070;2023-02-20T03:49:37;99153.56;;;6.23;100.00
70445;BME280;57902;49.638;11.070;2023-02-20T03:52:05;99152.72;;;6.26;100.00
70445;BME280;57902;49.638;11.070;2023-02-20T03:54:33;99144.19;;;6.28;100.00
70445;BME280;57902;49.638;11.070;2023-02-20T03:57:04;99140.75;;;6.29;100.00
70445;BME280;57902;49.638;11.070;2023-02-20T03:59:35;99139.91;;;6.26;100.00
70445;BME280;57902;49.638;11.070;2023-02-20T04:02:08;99148.44;;;6.25;100.00
70445;BME280;57902;49.638;11.070;2023-02-20T04:04:41;99164.66;;;6.24;100.00
70445;BME280;57902;49.638;11.070;2023-02-20T04:07:15;99158.69;;;6.25;100.00
70445;BME280;57902;49.638;11.070;2023-02-20T04:09:45;99154.41;;;6.22;100.00
70445;BME280;57902;49.638;11.070;2023-02-20T04:12:19;99162.97;;;6.24;100.00
70445;BME280;57902;49.638;11.070;2023-02-20T04:14:48;99145.88;;;6.19;100.00
70445;BME280;57902;49.638;11.070;2023-02-20T04:17:21;99156.13;;;6.17;100.00
70445;BME280;57902;49.638;11.070;2023-02-20T04:19:49;99156.94;;;6.15;100.00
70445;BME280;57902;49.638;11.070;2023-02-20T04:22:20;99155.28;;;6.17;100.00
70445;BME280;57902;49.638;11.070;2023-02-20T04:24:59;99154.41;;;6.19;100.00
70445;BME280;57902;49.638;11.070;2023-02-20T04:27:26;99146.72;;;6.15;100.00
70445;BME280;57902;49.638;11.070;2023-02-20T04:29:53;99143.31;;;6.17;100.00
70445;BME280;57902;49.638;11.070;2023-02-20T04:32:19;99138.19;;;6.22;100.00
70445;BME280;57902;49.638;11.070;2023-02-20T04:34:46;99141.59;;;6.21;100.00
70445;BME280;57902;49.638;11.070;2023-02-20T04:37:15;99155.28;;;6.20;100.00
70445;BME280;57902;49.638;11.070;2023-02-20T04:39:44;99155.28;;;6.26;100.00
70445;BME280;57902;49.638;11.070;2023-02-20T04:42:11;99157.84;;;6.29;100.00
70445;BME280;57902;49.638;11.070;2023-02-20T04:44:38;99162.09;;;6.24;100.00
70445;BME280;57902;49.638;11.070;2023-02-20T04:47:07;99170.63;;;6.26;100.00
70445;BME280;57902;49.638;11.070;2023-02-20T04:49:36;99164.66;;;6.24;100.00
70445;BME280;57902;49.638;11.070;2023-02-20T04:52:03;99160.41;;;6.26;100.00
70445;BME280;57902;49.638;11.070;2023-02-20T04:54:29;99157.84;;;6.24;100.00
70445;BME280;57902;49.638;11.070;2023-02-20T04:56:56;99168.94;;;6.28;100.00
70445;BME280;57902;49.638;11.070;2023-02-20T04:59:22;99163.81;;;6.31;100.00
70445;BME280;57902;49.638;11.070;2023-02-20T05:01:50;99162.13;;;6.32;100.00
70445;BME280;57902;49.638;11.070;2023-02-20T05:04:18;99165.53;;;6.32;100.00
70445;BME280;57902;49.638;11.070;2023-02-20T05:06:49;99164.69;;;6.35;100.00
70445;BME280;57902;49.638;11.070;2023-02-20T05:09:16;99172.38;;;6.36;100.00
70445;BME280;57902;49.638;11.070;2023-02-20T05:11:43;99176.66;;;6.39;100.00
70445;BME280;57902;49.638;11.070;2023-02-20T05:14:09;99175.78;;;6.38;100.00
70445;BME280;57902;49.638;11.070;2023-02-20T05:16:37;99178.34;;;6.41;100.00
70445;BME280;57902;49.638;11.070;2023-02-20T05:19:04;99179.22;;;6.40;100.00
70445;BME280;57902;49.638;11.070;2023-02-20T05:21:31;99180.91;;;6.44;100.00
70445;BME280;57902;49.638;11.070;2023-02-20T05:24:16;99176.66;;;6.40;100.00
70445;BME280;57902;49.638;11.070;2023-02-20T05:26:43;99183.44;;;6.40;100.00
70445;BME280;57902;49.638;11.070;2023-02-20T05:29:10;99185.19;;;6.45;100.00
70445;BME280;57902;49.638;11.070;2023-02-20T05:31:39;99186.03;;;6.46;100.00
70445;BME280;57902;49.638;11.070;2023-02-20T05:34:06;99192.88;;;6.48;100.00
70445;BME280;57902;49.638;11.070;2023-02-20T05:36:32;99198.88;;;6.51;100.00
70445;BME280;57902;49.638;11.070;2023-02-20T05:38:59;99208.22;;;6.45;100.00
70445;BME280;57902;49.638;11.070;2023-02-20T05:41:25;99209.94;;;6.45;100.00
70445;BME280;57902;49.638;11.070;2023-02-20T05:43:52;99216.78;;;6.51;100.00
70445;BME280;57902;49.638;11.070;2023-02-20T05:46:23;99218.47;;;6.47;100.00
70445;BME280;57902;49.638;11.070;2023-02-20T05:48:51;99206.50;;;6.46;100.00
70445;BME280;57902;49.638;11.070;2023-02-20T05:51:22;99219.34;;;6.52;100.00
70445;BME280;57902;49.638;11.070;2023-02-20T05:53:49;99213.34;;;6.48;100.00
70445;BME280;57902;49.638;11.070;2023-02-20T05:56:16;99217.63;;;6.46;100.00
70445;BME280;57902;49.638;11.070;2023-02-20T05:58:43;99206.53;;;6.47;100.00
70445;BME280;57902;49.638;11.070;2023-02-20T06:01:18;99195.44;;;6.48;100.00
70445;BME280;57902;49.638;11.070;2023-02-20T06:03:45;99186.06;;;6.51;100.00
70445;BME280;57902;49.638;11.070;2023-02-20T06:06:12;99193.75;;;6.52;100.00
70445;BME280;57902;49.638;11.070;2023-02-20T06:08:39;99192.00;;;6.46;100.00
70445;BME280;57902;49.638;11.070;2023-02-20T06:11:07;99190.28;;;6.39;100.00
70445;BME280;57902;49.638;11.070;2023-02-20T06:13:34;99190.28;;;6.39;100.00
70445;BME280;57902;49.638;11.070;2023-02-20T06:16:00;99197.97;;;6.39;100.00
70445;BME280;57902;49.638;11.070;2023-02-20T06:18:27;99202.25;;;6.40;100.00
70445;BME280;57902;49.638;11.070;2023-02-20T06:20:53;99209.94;;;6.40;100.00
70445;BME280;57902;49.638;11.070;2023-02-20T06:23:20;99207.38;;;6.42;100.00
70445;BME280;57902;49.638;11.070;2023-02-20T06:25:46;99209.06;;;6.35;100.00
70445;BME280;57902;49.638;11.070;2023-02-20T06:28:13;99209.91;;;6.34;100.00
70445;BME280;57902;49.638;11.070;2023-02-20T06:30:39;99216.75;;;6.35;100.00
70445;BME280;57902;49.638;11.070;2023-02-20T06:33:05;99216.75;;;6.34;100.00
70445;BME280;57902;49.638;11.070;2023-02-20T06:35:32;99220.19;;;6.37;100.00
70445;BME280;57902;49.638;11.070;2023-02-20T06:37:59;99211.63;;;6.35;100.00
70445;BME280;57902;49.638;11.070;2023-02-20T06:40:26;99226.97;;;6.32;100.00
70445;BME280;57902;49.638;11.070;2023-02-20T06:42:52;99216.75;;;6.37;100.00
70445;BME280;57902;49.638;11.070;2023-02-20T06:45:18;99214.19;;;6.35;100.00
70445;BME280;57902;49.638;11.070;2023-02-20T06:47:45;99232.94;;;6.33;100.00
70445;BME280;57902;49.638;11.070;2023-02-20T06:50:11;99230.41;;;6.36;100.00
70445;BME280;57902;49.638;11.070;2023-02-20T06:52:38;99231.28;;;6.36;100.00
70445;BME280;57902;49.638;11.070;2023-02-20T06:55:04;99233.81;;;6.33;100.00
70445;BME280;57902;49.638;11.070;2023-02-20T06:57:31;99231.28;;;6.38;100.00
70445;BME280;57902;49.638;11.070;2023-02-20T06:59:58;99237.22;;;6.35;100.00
70445;BME280;57902;49.638;11.070;2023-02-20T07:02:24;99227.88;;;6.39;100.00
70445;BME280;57902;49.638;11.070;2023-02-20T07:04:51;99233.00;;;6.39;100.00
70445;BME280;57902;49.638;11.070;2023-02-20T07:07:17;99228.72;;;6.36;100.00
70445;BME280;57902;49.638;11.070;2023-02-20T07:09:44;99223.59;;;6.36;100.00
70445;BME280;57902;49.638;11.070;2023-02-20T07:12:10;99221.88;;;6.40;100.00
70445;BME280;57902;49.638;11.070;2023-02-20T07:14:37;99215.91;;;6.35;100.00
70445;BME280;57902;49.638;11.070;2023-02-20T07:17:03;99214.19;;;6.37;100.00
70445;BME280;57902;49.638;11.070;2023-02-20T07:19:30;99209.06;;;6.46;100.00
70445;BME280;57902;49.638;11.070;2023-02-20T07:21:56;99208.22;;;6.41;100.00
70445;BME280;57902;49.638;11.070;2023-02-20T07:24:23;99218.47;;;6.42;100.00
70445;BME280;57902;49.638;11.070;2023-02-20T07:26:49;99221.03;;;6.39;100.00
70445;BME280;57902;49.638;11.070;2023-02-20T07:29:15;99221.03;;;6.52;100.00
70445;BME280;57902;49.638;11.070;2023-02-20T07:31:42;99224.47;;;6.49;100.00
70445;BME280;57902;49.638;11.070;2023-02-20T07:34:09;99222.75;;;6.65;100.00
70445;BME280;57902;49.638;11.070;2023-02-20T07:36:35;99236.44;;;6.69;100.00
70445;BME280;57902;49.638;11.070;2023-02-20T07:39:03;99233.06;;;6.77;100.00
70445;BME280;57902;49.638;11.070;2023-02-20T07:41:31;99239.88;;;6.88;100.00
70445;BME280;57902;49.638;11.070;2023-02-20T07:44:03;99239.91;;;7.11;98.44
70445;BME280;57902;49.638;11.070;2023-02-20T07:46:35;99233.91;;;7.24;98.11
70445;BME280;57902;49.638;11.070;2023-02-20T07:49:03;99213.31;;;7.61;97.23
70445;BME280;57902;49.638;11.070;2023-02-20T07:51:31;99208.00;;;8.11;91.80
70445;BME280;57902;49.638;11.070;2023-02-20T07:53:57;99206.19;;;8.33;91.21
70445;BME280;57902;49.638;11.070;2023-02-20T07:56:24;99193.97;;;8.69;89.00
70445;BME280;57902;49.638;11.070;2023-02-20T07:58:51;99207.47;;;9.00;89.92
70445;BME280;57902;49.638;11.070;2023-02-20T08:01:18;99196.91;;;9.31;83.53
70445;BME280;57902;49.638;11.070;2023-02-20T08:03:45;99197.88;;;9.15;83.01
70445;BME280;57902;49.638;11.070;2023-02-20T08:06:18;99195.25;;;9.22;81.73
70445;BME280;57902;49.638;11.070;2023-02-20T08:08:51;99194.66;;;8.96;82.91
70445;BME280;57902;49.638;11.070;2023-02-20T08:11:18;99193.53;;;9.21;81.66
70445;BME280;57902;49.638;11.070;2023-02-20T08:13:45;99194.22;;;9.39;83.65
70445;BME280;57902;49.638;11.070;2023-02-20T08:16:12;99198.78;;;9.94;79.08
70445;BME280;57902;49.638;11.070;2023-02-20T08:18:39;99213.38;;;9.92;78.79
70445;BME280;57902;49.638;11.070;2023-02-20T08:21:08;99202.94;;;10.05;75.54
70445;BME280;57902;49.638;11.070;2023-02-20T08:23:34;99196.41;;;9.76;76.03
70445;BME280;57902;49.638;11.070;2023-02-20T08:26:03;99189.72;;;9.61;76.37
70445;BME280;57902;49.638;11.070;2023-02-20T08:28:29;99190.84;;;9.37;77.51
70445;BME280;57902;49.638;11.070;2023-02-20T08:30:56;99183.09;;;9.40;77.68
70445;BME280;57902;49.638;11.070;2023-02-20T08:33:22;99188.13;;;9.49;78.99
70445;BME280;57902;49.638;11.070;2023-02-20T08:35:48;99194.59;;;9.84;75.77
70445;BME280;57902;49.638;11.070;2023-02-20T08:38:35;99187.31;;;10.17;77.32
70445;BME280;57902;49.638;11.070;2023-02-20T08:41:04;99174.00;;;11.02;69.67
70445;BME280;57902;49.638;11.070;2023-02-20T08:43:33;99170.31;;;11.19;69.27
70445;BME280;57902;49.638;11.070;2023-02-20T08:45:59;99174.53;;;11.67;66.27
70445;BME280;57902;49.638;11.070;2023-02-20T08:48:26;99176.09;;;11.76;65.41
70445;BME280;57902;49.638;11.070;2023-02-20T08:50:53;99177.47;;;11.92;65.93
70445;BME280;57902;49.638;11.070;2023-02-20T08:53:20;99173.88;;;12.41;62.74
70445;BME280;57902;49.638;11.070;2023-02-20T08:55:47;99173.75;;;12.46;62.97
70445;BME280;57902;49.638;11.070;2023-02-20T08:58:17;99168.22;;;12.63;61.88
70445;BME280;57902;49.638;11.070;2023-02-20T09:00:44;99165.31;;;12.75;61.82
70445;BME280;57902;49.638;11.070;2023-02-20T09:03:11;99169.66;;;12.75;61.32
70445;BME280;57902;49.638;11.070;2023-02-20T09:05:37;99167.53;;;12.91;62.34
70445;BME280;57902;49.638;11.070;2023-02-20T09:08:04;99166.00;;;13.17;60.10
70445;BME280;57902;49.638;11.070;2023-02-20T09:10:31;99160.16;;;13.43;57.56
70445;BME280;57902;49.638;11.070;2023-02-20T09:12:57;99161.00;;;13.45;57.15
70445;BME280;57902;49.638;11.070;2023-02-20T09:15:24;99144.09;;;13.63;56.01
70445;BME280;57902;49.638;11.070;2023-02-20T09:17:51;99148.50;;;13.59;56.93
70445;BME280;57902;49.638;11.070;2023-02-20T09:20:20;99146.38;;;13.74;55.68
70445;BME280;57902;49.638;11.070;2023-02-20T09:22:50;99134.47;;;13.67;56.11
70445;BME280;57902;49.638;11.070;2023-02-20T09:25:17;99131.13;;;13.30;57.90
70445;BME280;57902;49.638;11.070;2023-02-20T09:27:44;99125.06;;;13.64;57.09
70445;BME280;57902;49.638;11.070;2023-02-20T09:30:15;99127.66;;;13.64;57.41
70445;BME280;57902;49.638;11.070;2023-02-20T09:32:45;99124.97;;;13.67;57.62
70445;BME280;57902;49.638;11.070;2023-02-20T09:35:16;99120.09;;;13.86;56.16
70445;BME280;57902;49.638;11.070;2023-02-20T09:37:43;99113.34;;;13.80;56.18
70445;BME280;57902;49.638;11.070;2023-02-20T09:40:12;99111.81;;;14.03;56.23
70445;BME280;57902;49.638;11.070;2023-02-20T09:42:49;99107.09;;;13.88;53.81
70445;BME280;57902;49.638;11.070;2023-02-20T09:45:24;99108.50;;;13.38;56.08
70445;BME280;57902;49.638;11.070;2023-02-20T09:48:05;99100.41;;;13.18;56.29
70445;BME280;57902;49.638;11.070;2023-02-20T09:53:33;99089.56;;;12.70;57.44
70445;BME280;57902;49.638;11.070;2023-02-20T09:56:03;99087.34;;;12.55;59.25
70445;BME280;57902;49.638;11.070;2023-02-20T10:01:21;99085.66;;;12.54;60.91
70445;BME280;57902;49.638;11.070;2023-02-20T10:03:55;99082.19;;;12.55;60.84
70445;BME280;57902;49.638;11.070;2023-02-20T10:06:26;99088.06;;;12.62;61.79
70445;BME280;57902;49.638;11.070;2023-02-20T10:08:54;99078.81;;;12.86;59.45
70445;BME280;57902;49.638;11.070;2023-02-20T10:20:22;99075.25;;;12.57;60.13
70445;BME280;57902;49.638;11.070;2023-02-20T10:25:57;99074.59;;;12.11;61.60
70445;BME280;57902;49.638;11.070;2023-02-20T10:28:25;99052.94;;;12.17;61.04
70445;BME280;57902;49.638;11.070;2023-02-20T10:34:07;99063.78;;;11.92;62.18
70445;BME280;57902;49.638;11.070;2023-02-20T10:36:54;99069.94;;;11.88;61.82
70445;BME280;57902;49.638;11.070;2023-02-20T10:39:23;99071.59;;;11.90;61.71
70445;BME280;57902;49.638;11.070;2023-02-20T10:50:06;99069.97;;;11.86;64.14
70445;BME280;57902;49.638;11.070;2023-02-20T10:52:41;99065.38;;;11.99;63.99
70445;BME280;57902;49.638;11.070;2023-02-20T10:55:17;99048.91;;;12.05;63.10
70445;BME280;57902;49.638;11.070;2023-02-20T11:00:40;99035.78;;;12.14;62.96
70445;BME280;57902;49.638;11.070;2023-02-20T11:03:14;99027.78;;;12.23;63.03
70445;BME280;57902;49.638;11.070;2023-02-20T11:05:56;99019.91;;;12.28;62.45
70445;BME280;57902;49.638;11.070;2023-02-20T11:08:26;99019.31;;;12.17;62.95
70445;BME280;57902;49.638;11.070;2023-02-20T11:10:56;99011.97;;;12.01;63.86
70445;BME280;57902;49.638;11.070;2023-02-20T11:13:25;98998.22;;;11.99;64.56
70445;BME280;57902;49.638;11.070;2023-02-20T11:15:55;99002.94;;;12.18;64.08
70445;BME280;57902;49.638;11.070;2023-02-20T11:18:34;98995.38;;;12.10;64.53
70445;BME280;57902;49.638;11.070;2023-02-20T11:21:03;98987.59;;;12.12;64.24
70445;BME280;57902;49.638;11.070;2023-02-20T11:23:37;98983.25;;;12.12;65.03
70445;BME280;57902;49.638;11.070;2023-02-20T11:28:59;98972.19;;;12.41;63.76
70445;BME280;57902;49.638;11.070;2023-02-20T11:31:27;98969.69;;;12.38;64.13
70445;BME280;57902;49.638;11.070;2023-02-20T11:33:54;98967.13;;;12.37;64.40
70445;BME280;57902;49.638;11.070;2023-02-20T11:36:24;98959.69;;;12.57;61.79
70445;BME280;57902;49.638;11.070;2023-02-20T11:38:59;98964.81;;;12.59;62.21
70445;BME280;57902;49.638;11.070;2023-02-20T11:41:34;98957.69;;;12.69;60.82
70445;BME280;57902;49.638;11.070;2023-02-20T11:44:19;98948.31;;;12.65;61.50
70445;BME280;57902;49.638;11.070;2023-02-20T11:46:47;98943.13;;;12.65;62.32
70445;BME280;57902;49.638;11.070;2023-02-20T11:49:27;98945.31;;;12.78;61.45
70445;BME280;57902;49.638;11.070;2023-02-20T11:52:08;98937.69;;;13.05;58.92
70445;BME280;57902;49.638;11.070;2023-02-20T11:54:35;98934.00;;;13.12;58.37
70445;BME280;57902;49.638;11.070;2023-02-20T11:57:05;98940.00;;;13.15;58.08
70445;BME280;57902;49.638;11.070;2023-02-20T11:59:46;98930.50;;;13.13;57.32
70445;BME280;57902;49.638;11.070;2023-02-20T12:05:10;98914.81;;;12.90;58.17
70445;BME280;57902;49.638;11.070;2023-02-20T12:07:44;98911.34;;;12.91;57.73
70445;BME280;57902;49.638;11.070;2023-02-20T12:10:24;98907.09;;;12.88;58.66
70445;BME280;57902;49.638;11.070;2023-02-20T12:12:52;98898.91;;;13.02;58.79
70445;BME280;57902;49.638;11.070;2023-02-20T12:15:23;98897.72;;;13.14;58.40
70445;BME280;57902;49.638;11.070;2023-02-20T12:20:47;98880.16;;;13.24;58.81
70445;BME280;57902;49.638;11.070;2023-02-20T12:23:47;98880.50;;;13.41;56.63
70445;BME280;57902;49.638;11.070;2023-02-20T12:29:25;98881.22;;;13.46;55.60
70445;BME280;57902;49.638;11.070;2023-02-20T12:37:41;98866.13;;;13.31;56.06
70445;BME280;57902;49.638;11.070;2023-02-20T12:40:32;98862.44;;;13.40;55.38
70445;BME280;57902;49.638;11.070;2023-02-20T12:43:26;98863.16;;;13.45;56.15
70445;BME280;57902;49.638;11.070;2023-02-20T12:49:20;98858.56;;;13.53;55.50
70445;BME280;57902;49.638;11.070;2023-02-20T12:51:26;98858.44;;;13.56;55.40
70445;BME280;57902;49.638;11.070;2023-02-20T12:57:11;98856.69;;;13.58;55.42
70445;BME280;57902;49.638;11.070;2023-02-20T13:00:00;98843.78;;;13.57;55.00
70445;BME280;57902;49.638;11.070;2023-02-20T13:02:37;98838.50;;;13.60;55.07
70445;BME280;57902;49.638;11.070;2023-02-20T13:05:12;98841.56;;;13.44;55.46
70445;BME280;57902;49.638;11.070;2023-02-20T13:07:51;98835.81;;;13.36;56.09
70445;BME280;57902;49.638;11.070;2023-02-20T13:10:27;98834.09;;;13.35;55.44
70445;BME280;57902;49.638;11.070;2023-02-20T13:12:55;98835.00;;;13.33;55.69
70445;BME280;57902;49.638;11.070;2023-02-20T13:19:04;98843.91;;;13.24;55.44
70445;BME280;57902;49.638;11.070;2023-02-20T13:21:32;98825.88;;;13.21;55.29
70445;BME280;57902;49.638;11.070;2023-02-20T13:26:52;98817.19;;;13.23;56.00
70445;BME280;57902;49.638;11.070;2023-02-20T13:29:21;98817.88;;;13.28;55.20
70445;BME280;57902;49.638;11.070;2023-02-20T13:32:01;98809.13;;;13.33;54.83
70445;BME280;57902;49.638;11.070;2023-02-20T13:34:35;98809.97;;;13.33;54.76
70445;BME280;57902;49.638;11.070;2023-02-20T13:37:02;98805.63;;;13.34;54.41
70445;BME280;57902;49.638;11.070;2023-02-20T13:39:38;98806.25;;;13.42;53.89
70445;BME280;57902;49.638;11.070;2023-02-20T13:44:51;98802.09;;;13.38;54.57
70445;BME280;57902;49.638;11.070;2023-02-20T13:50:00;98786.78;;;13.28;54.14
70445;BME280;57902;49.638;11.070;2023-02-20T13:52:43;98788.00;;;13.18;54.29
70445;BME280;57902;49.638;11.070;2023-02-20T13:57:56;98777.16;;;13.07;55.29
70445;BME280;57902;49.638;11.070;2023-02-20T14:00:43;98789.28;;;13.05;55.15
70445;BME280;57902;49.638;11.070;2023-02-20T14:03:25;98783.84;;;13.12;54.78
70445;BME280;57902;49.638;11.070;2023-02-20T14:06:15;98782.22;;;13.10;54.14
70445;BME280;57902;49.638;11.070;2023-02-20T14:08:47;98771.22;;;13.03;53.90
70445;BME280;57902;49.638;11.070;2023-02-20T14:11:29;98767.94;;;12.98;53.67
70445;BME280;57902;49.638;11.070;2023-02-20T14:13:57;98768.94;;;12.94;53.44
70445;BME280;57902;49.638;11.070;2023-02-20T14:16:38;98770.69;;;12.93;53.26
70445;BME280;57902;49.638;11.070;2023-02-20T14:19:14;98774.31;;;12.88;53.74
70445;BME280;57902;49.638;11.070;2023-02-20T14:21:42;98768.41;;;12.83;54.12
70445;BME280;57902;49.638;11.070;2023-02-20T14:24:23;98756.44;;;12.78;54.10
70445;BME280;57902;49.638;11.070;2023-02-20T14:26:50;98754.88;;;12.74;54.20
70445;BME280;57902;49.638;11.070;2023-02-20T14:29:25;98749.72;;;12.74;54.77
70445;BME280;57902;49.638;11.070;2023-02-20T14:31:55;98746.41;;;12.69;55.52
70445;BME280;57902;49.638;11.070;2023-02-20T14:34:33;98736.06;;;12.69;55.19
70445;BME280;57902;49.638;11.070;2023-02-20T14:37:11;98718.72;;;12.71;55.34